sensor_id;sensor_type;location;lat;lon;timestamp;P1;durP1;ratioP1;P2;durP2;ratioP2
74421;SDS011;62856;51.446;8.360;2022-09-23T00:01:15;9.05;;;1.50;;
74421;SDS011;62856;51.446;8.360;2022-09-23T00:03:40;6.50;;;1.38;;
74421;SDS011;62856;51.446;8.360;2022-09-23T00:06:10;6.15;;;1.50;;
74421;SDS011;62856;51.446;8.360;2022-09-23T00:08:37;7.95;;;1.42;;
74421;SDS011;62856;51.446;8.360;2022-09-23T00:11:08;5.05;;;1.20;;
74421;SDS011;62856;51.446;8.360;2022-09-23T00:13:35;5.40;;;1.40;;
74421;SDS011;62856;51.446;8.360;2022-09-23T00:16:03;3.28;;;1.08;;
74421;SDS011;62856;51.446;8.360;2022-09-23T00:18:29;3.97;;;1.10;;
74421;SDS011;62856;51.446;8.360;2022-09-23T00:20:55;2.58;;;0.98;;
74421;SDS011;62856;51.446;8.360;2022-09-23T00:23:23;4.53;;;1.30;;
74421;SDS011;62856;51.446;8.360;2022-09-23T00:25:55;4.43;;;1.20;;
74421;SDS011;62856;51.446;8.360;2022-09-23T00:28:21;4.13;;;1.10;;
74421;SDS011;62856;51.446;8.360;2022-09-23T00:30:47;3.15;;;1.20;;
74421;SDS011;62856;51.446;8.360;2022-09-23T00:33:13;3.45;;;1.05;;
74421;SDS011;62856;51.446;8.360;2022-09-23T00:35:38;5.30;;;1.55;;
74421;SDS011;62856;51.446;8.360;2022-09-23T00:38:03;3.15;;;1.10;;
74421;SDS011;62856;51.446;8.360;2022-09-23T00:40:29;8.48;;;1.48;;
74421;SDS011;62856;51.446;8.360;2022-09-23T00:42:54;6.20;;;1.58;;
74421;SDS011;62856;51.446;8.360;2022-09-23T00:45:19;6.20;;;1.40;;
74421;SDS011;62856;51.446;8.360;2022-09-23T00:47:58;4.57;;;1.30;;
74421;SDS011;62856;51.446;8.360;2022-09-23T00:50:35;3.10;;;1.20;;
74421;SDS011;62856;51.446;8.360;2022-09-23T00:53:07;3.90;;;1.00;;
74421;SDS011;62856;51.446;8.360;2022-09-23T00:55:45;5.30;;;1.20;;
74421;SDS011;62856;51.446;8.360;2022-09-23T00:58:17;5.68;;;1.42;;
74421;SDS011;62856;51.446;8.360;2022-09-23T01:00:44;4.30;;;1.20;;
74421;SDS011;62856;51.446;8.360;2022-09-23T01:03:11;3.95;;;1.10;;
74421;SDS011;62856;51.446;8.360;2022-09-23T01:05:37;7.07;;;1.33;;
74421;SDS011;62856;51.446;8.360;2022-09-23T01:08:04;2.92;;;0.98;;
74421;SDS011;62856;51.446;8.360;2022-09-23T01:10:44;3.90;;;1.30;;
74421;SDS011;62856;51.446;8.360;2022-09-23T01:13:23;3.65;;;1.13;;
74421;SDS011;62856;51.446;8.360;2022-09-23T01:16:07;3.45;;;1.08;;
74421;SDS011;62856;51.446;8.360;2022-09-23T01:21:10;4.00;;;1.30;;
74421;SDS011;62856;51.446;8.360;2022-09-23T01:35:22;3.53;;;1.00;;
74421;SDS011;62856;51.446;8.360;2022-09-23T01:38:10;5.00;;;1.42;;
74421;SDS011;62856;51.446;8.360;2022-09-23T01:45:56;5.60;;;1.10;;
74421;SDS011;62856;51.446;8.360;2022-09-23T01:51:25;4.00;;;1.27;;
74421;SDS011;62856;51.446;8.360;2022-09-23T01:56:51;4.90;;;1.30;;
74421;SDS011;62856;51.446;8.360;2022-09-23T01:59:39;5.68;;;1.50;;
74421;SDS011;62856;51.446;8.360;2022-09-23T02:02:10;5.20;;;1.45;;
74421;SDS011;62856;51.446;8.360;2022-09-23T02:07:33;6.63;;;1.63;;
74421;SDS011;62856;51.446;8.360;2022-09-23T02:12:42;5.15;;;1.63;;
74421;SDS011;62856;51.446;8.360;2022-09-23T02:15:15;3.70;;;1.30;;
74421;SDS011;62856;51.446;8.360;2022-09-23T02:20:29;4.05;;;1.27;;
74421;SDS011;62856;51.446;8.360;2022-09-23T02:23:05;5.13;;;1.42;;
74421;SDS011;62856;51.446;8.360;2022-09-23T02:28:18;3.42;;;1.20;;
74421;SDS011;62856;51.446;8.360;2022-09-23T02:31:01;7.72;;;1.75;;
74421;SDS011;62856;51.446;8.360;2022-09-23T02:33:37;5.65;;;1.15;;
74421;SDS011;62856;51.446;8.360;2022-09-23T02:36:10;3.97;;;1.15;;
74421;SDS011;62856;51.446;8.360;2022-09-23T02:38:45;3.45;;;1.23;;
74421;SDS011;62856;51.446;8.360;2022-09-23T02:41:18;5.53;;;1.50;;
74421;SDS011;62856;51.446;8.360;2022-09-23T02:46:27;5.68;;;1.60;;
74421;SDS011;62856;51.446;8.360;2022-09-23T02:51:41;4.32;;;1.55;;
74421;SDS011;62856;51.446;8.360;2022-09-23T02:54:08;4.65;;;1.40;;
74421;SDS011;62856;51.446;8.360;2022-09-23T02:56:38;7.07;;;2.20;;
74421;SDS011;62856;51.446;8.360;2022-09-23T02:59:04;4.32;;;1.40;;
74421;SDS011;62856;51.446;8.360;2022-09-23T03:04:25;7.80;;;2.15;;
74421;SDS011;62856;51.446;8.360;2022-09-23T03:07:20;6.30;;;1.75;;
74421;SDS011;62856;51.446;8.360;2022-09-23T03:15:37;4.88;;;1.73;;
74421;SDS011;62856;51.446;8.360;2022-09-23T03:21:23;5.53;;;1.75;;
74421;SDS011;62856;51.446;8.360;2022-09-23T03:23:54;5.05;;;1.58;;
74421;SDS011;62856;51.446;8.360;2022-09-23T03:26:25;4.07;;;1.40;;
74421;SDS011;62856;51.446;8.360;2022-09-23T03:28:55;6.93;;;1.90;;
74421;SDS011;62856;51.446;8.360;2022-09-23T03:31:22;5.05;;;1.58;;
74421;SDS011;62856;51.446;8.360;2022-09-23T03:33:49;4.88;;;1.55;;
74421;SDS011;62856;51.446;8.360;2022-09-23T03:36:20;7.25;;;1.80;;
74421;SDS011;62856;51.446;8.360;2022-09-23T03:39:10;5.20;;;1.52;;
74421;SDS011;62856;51.446;8.360;2022-09-23T03:41:41;4.85;;;1.67;;
74421;SDS011;62856;51.446;8.360;2022-09-23T03:44:15;7.97;;;2.10;;
74421;SDS011;62856;51.446;8.360;2022-09-23T03:46:41;4.32;;;1.48;;
74421;SDS011;62856;51.446;8.360;2022-09-23T03:49:15;6.28;;;1.70;;
74421;SDS011;62856;51.446;8.360;2022-09-23T03:51:43;5.47;;;1.80;;
74421;SDS011;62856;51.446;8.360;2022-09-23T03:54:09;5.70;;;1.70;;
74421;SDS011;62856;51.446;8.360;2022-09-23T03:56:34;5.87;;;1.63;;
74421;SDS011;62856;51.446;8.360;2022-09-23T03:58:59;7.25;;;2.03;;
74421;SDS011;62856;51.446;8.360;2022-09-23T04:01:25;6.65;;;1.80;;
74421;SDS011;62856;51.446;8.360;2022-09-23T04:03:51;5.80;;;1.63;;
74421;SDS011;62856;51.446;8.360;2022-09-23T04:06:17;5.00;;;2.10;;
74421;SDS011;62856;51.446;8.360;2022-09-23T04:08:42;6.10;;;1.63;;
74421;SDS011;62856;51.446;8.360;2022-09-23T04:11:08;5.40;;;1.88;;
74421;SDS011;62856;51.446;8.360;2022-09-23T04:13:34;5.50;;;1.70;;
74421;SDS011;62856;51.446;8.360;2022-09-23T04:15:59;7.57;;;1.90;;
74421;SDS011;62856;51.446;8.360;2022-09-23T04:18:25;7.60;;;2.70;;
74421;SDS011;62856;51.446;8.360;2022-09-23T04:20:50;7.20;;;1.77;;
74421;SDS011;62856;51.446;8.360;2022-09-23T04:23:16;13.85;;;2.65;;
74421;SDS011;62856;51.446;8.360;2022-09-23T04:25:45;7.40;;;2.30;;
74421;SDS011;62856;51.446;8.360;2022-09-23T04:28:11;9.93;;;1.88;;
74421;SDS011;62856;51.446;8.360;2022-09-23T04:30:39;10.95;;;2.80;;
74421;SDS011;62856;51.446;8.360;2022-09-23T04:33:07;7.45;;;1.90;;
74421;SDS011;62856;51.446;8.360;2022-09-23T04:35:33;9.82;;;2.38;;
74421;SDS011;62856;51.446;8.360;2022-09-23T04:37:59;7.27;;;2.13;;
74421;SDS011;62856;51.446;8.360;2022-09-23T04:40:24;8.63;;;1.98;;
74421;SDS011;62856;51.446;8.360;2022-09-23T04:42:49;8.15;;;2.17;;
74421;SDS011;62856;51.446;8.360;2022-09-23T04:45:15;10.68;;;2.20;;
74421;SDS011;62856;51.446;8.360;2022-09-23T04:47:40;7.93;;;2.03;;
74421;SDS011;62856;51.446;8.360;2022-09-23T04:50:06;7.28;;;2.00;;
74421;SDS011;62856;51.446;8.360;2022-09-23T04:52:31;19.50;;;2.25;;
74421;SDS011;62856;51.446;8.360;2022-09-23T04:54:57;8.17;;;1.90;;
74421;SDS011;62856;51.446;8.360;2022-09-23T04:57:22;8.82;;;1.70;;
74421;SDS011;62856;51.446;8.360;2022-09-23T04:59:48;9.50;;;2.03;;
74421;SDS011;62856;51.446;8.360;2022-09-23T05:02:14;8.35;;;1.73;;
74421;SDS011;62856;51.446;8.360;2022-09-23T05:04:39;12.27;;;1.83;;
74421;SDS011;62856;51.446;8.360;2022-09-23T05:07:05;14.00;;;2.10;;
74421;SDS011;62856;51.446;8.360;2022-09-23T05:09:30;8.27;;;1.88;;
74421;SDS011;62856;51.446;8.360;2022-09-23T05:11:55;8.85;;;2.28;;
74421;SDS011;62856;51.446;8.360;2022-09-23T05:14:21;7.87;;;2.17;;
74421;SDS011;62856;51.446;8.360;2022-09-23T05:16:46;12.18;;;3.65;;
74421;SDS011;62856;51.446;8.360;2022-09-23T05:19:11;5.77;;;1.90;;
74421;SDS011;62856;51.446;8.360;2022-09-23T05:21:37;6.47;;;1.60;;
74421;SDS011;62856;51.446;8.360;2022-09-23T05:24:03;7.28;;;1.88;;
74421;SDS011;62856;51.446;8.360;2022-09-23T05:26:30;6.90;;;2.00;;
74421;SDS011;62856;51.446;8.360;2022-09-23T05:28:56;7.85;;;1.85;;
74421;SDS011;62856;51.446;8.360;2022-09-23T05:31:23;5.80;;;1.70;;
74421;SDS011;62856;51.446;8.360;2022-09-23T05:36:17;12.27;;;2.00;;
74421;SDS011;62856;51.446;8.360;2022-09-23T05:38:43;7.22;;;1.90;;
74421;SDS011;62856;51.446;8.360;2022-09-23T05:41:12;9.30;;;1.83;;
74421;SDS011;62856;51.446;8.360;2022-09-23T05:43:37;7.47;;;1.90;;
74421;SDS011;62856;51.446;8.360;2022-09-23T05:46:08;9.82;;;1.80;;
74421;SDS011;62856;51.446;8.360;2022-09-23T05:48:35;7.10;;;2.05;;
74421;SDS011;62856;51.446;8.360;2022-09-23T05:51:02;10.73;;;1.95;;
74421;SDS011;62856;51.446;8.360;2022-09-23T05:53:29;9.77;;;1.73;;
74421;SDS011;62856;51.446;8.360;2022-09-23T05:55:57;6.13;;;1.52;;
74421;SDS011;62856;51.446;8.360;2022-09-23T05:58:23;5.20;;;1.60;;
74421;SDS011;62856;51.446;8.360;2022-09-23T06:00:49;7.00;;;1.70;;
74421;SDS011;62856;51.446;8.360;2022-09-23T06:03:15;5.70;;;1.67;;
74421;SDS011;62856;51.446;8.360;2022-09-23T06:05:43;6.07;;;1.88;;
74421;SDS011;62856;51.446;8.360;2022-09-23T06:08:08;5.25;;;1.38;;
74421;SDS011;62856;51.446;8.360;2022-09-23T06:10:38;5.45;;;1.77;;
74421;SDS011;62856;51.446;8.360;2022-09-23T06:13:04;5.47;;;1.90;;
74421;SDS011;62856;51.446;8.360;2022-09-23T06:15:30;5.93;;;1.70;;
74421;SDS011;62856;51.446;8.360;2022-09-23T06:17:56;5.72;;;2.03;;
74421;SDS011;62856;51.446;8.360;2022-09-23T06:20:22;8.02;;;2.10;;
74421;SDS011;62856;51.446;8.360;2022-09-23T06:22:47;8.80;;;2.53;;
74421;SDS011;62856;51.446;8.360;2022-09-23T06:25:12;8.75;;;2.30;;
74421;SDS011;62856;51.446;8.360;2022-09-23T06:27:38;6.63;;;1.95;;
74421;SDS011;62856;51.446;8.360;2022-09-23T06:30:04;7.88;;;1.88;;
74421;SDS011;62856;51.446;8.360;2022-09-23T06:32:30;7.90;;;2.50;;
74421;SDS011;62856;51.446;8.360;2022-09-23T06:34:56;9.32;;;2.15;;
74421;SDS011;62856;51.446;8.360;2022-09-23T06:37:22;8.95;;;2.25;;
74421;SDS011;62856;51.446;8.360;2022-09-23T06:39:48;6.10;;;2.10;;
74421;SDS011;62856;51.446;8.360;2022-09-23T06:42:14;6.50;;;2.15;;
74421;SDS011;62856;51.446;8.360;2022-09-23T06:44:40;10.48;;;2.45;;
74421;SDS011;62856;51.446;8.360;2022-09-23T06:47:06;6.90;;;1.88;;
74421;SDS011;62856;51.446;8.360;2022-09-23T06:49:31;8.50;;;2.10;;
74421;SDS011;62856;51.446;8.360;2022-09-23T06:51:57;8.80;;;1.88;;
74421;SDS011;62856;51.446;8.360;2022-09-23T06:54:22;7.43;;;1.98;;
74421;SDS011;62856;51.446;8.360;2022-09-23T06:56:48;6.72;;;1.90;;
74421;SDS011;62856;51.446;8.360;2022-09-23T06:59:13;6.40;;;1.80;;
74421;SDS011;62856;51.446;8.360;2022-09-23T07:01:41;5.10;;;1.50;;
74421;SDS011;62856;51.446;8.360;2022-09-23T07:04:07;5.10;;;1.50;;
74421;SDS011;62856;51.446;8.360;2022-09-23T07:06:33;3.92;;;1.40;;
74421;SDS011;62856;51.446;8.360;2022-09-23T07:08:59;5.45;;;1.77;;
74421;SDS011;62856;51.446;8.360;2022-09-23T07:11:24;6.03;;;1.55;;
74421;SDS011;62856;51.446;8.360;2022-09-23T07:13:50;6.57;;;1.60;;
74421;SDS011;62856;51.446;8.360;2022-09-23T07:16:16;6.15;;;1.60;;
74421;SDS011;62856;51.446;8.360;2022-09-23T07:18:52;6.40;;;1.80;;
74421;SDS011;62856;51.446;8.360;2022-09-23T07:21:18;7.00;;;1.60;;
74421;SDS011;62856;51.446;8.360;2022-09-23T07:23:52;8.98;;;2.10;;
74421;SDS011;62856;51.446;8.360;2022-09-23T07:26:20;5.65;;;1.67;;
74421;SDS011;62856;51.446;8.360;2022-09-23T07:28:52;5.55;;;1.70;;
74421;SDS011;62856;51.446;8.360;2022-09-23T07:31:21;5.78;;;1.77;;
74421;SDS011;62856;51.446;8.360;2022-09-23T07:33:47;7.70;;;1.50;;
74421;SDS011;62856;51.446;8.360;2022-09-23T07:36:16;5.90;;;2.13;;
74421;SDS011;62856;51.446;8.360;2022-09-23T07:38:43;7.13;;;1.70;;
74421;SDS011;62856;51.446;8.360;2022-09-23T07:41:11;5.10;;;1.80;;
74421;SDS011;62856;51.446;8.360;2022-09-23T07:43:39;5.60;;;1.83;;
74421;SDS011;62856;51.446;8.360;2022-09-23T07:46:06;7.03;;;1.60;;
74421;SDS011;62856;51.446;8.360;2022-09-23T07:48:35;4.38;;;1.40;;
74421;SDS011;62856;51.446;8.360;2022-09-23T07:51:35;9.32;;;1.65;;
74421;SDS011;62856;51.446;8.360;2022-09-23T07:54:11;5.68;;;1.50;;
74421;SDS011;62856;51.446;8.360;2022-09-23T07:56:41;4.68;;;1.60;;
74421;SDS011;62856;51.446;8.360;2022-09-23T07:59:08;6.40;;;1.60;;
74421;SDS011;62856;51.446;8.360;2022-09-23T08:01:53;5.25;;;1.60;;
74421;SDS011;62856;51.446;8.360;2022-09-23T08:04:24;6.40;;;1.67;;
74421;SDS011;62856;51.446;8.360;2022-09-23T08:10:07;5.90;;;1.85;;
74421;SDS011;62856;51.446;8.360;2022-09-23T08:12:45;6.05;;;1.67;;
74421;SDS011;62856;51.446;8.360;2022-09-23T08:17:47;6.20;;;1.60;;
74421;SDS011;62856;51.446;8.360;2022-09-23T08:20:16;6.18;;;1.85;;
74421;SDS011;62856;51.446;8.360;2022-09-23T08:23:01;4.10;;;1.48;;
74421;SDS011;62856;51.446;8.360;2022-09-23T08:25:26;7.63;;;1.70;;
74421;SDS011;62856;51.446;8.360;2022-09-23T08:27:52;5.60;;;1.80;;
74421;SDS011;62856;51.446;8.360;2022-09-23T08:30:17;8.40;;;1.95;;
74421;SDS011;62856;51.446;8.360;2022-09-23T08:32:42;5.10;;;1.67;;
74421;SDS011;62856;51.446;8.360;2022-09-23T08:35:08;7.20;;;1.60;;
74421;SDS011;62856;51.446;8.360;2022-09-23T08:37:34;5.65;;;1.70;;
74421;SDS011;62856;51.446;8.360;2022-09-23T08:40:14;6.75;;;1.70;;
74421;SDS011;62856;51.446;8.360;2022-09-23T08:42:40;6.47;;;1.70;;
74421;SDS011;62856;51.446;8.360;2022-09-23T08:45:13;5.00;;;1.60;;
74421;SDS011;62856;51.446;8.360;2022-09-23T08:47:51;4.60;;;1.60;;
74421;SDS011;62856;51.446;8.360;2022-09-23T08:50:21;4.80;;;1.63;;
74421;SDS011;62856;51.446;8.360;2022-09-23T08:52:52;5.28;;;1.60;;
74421;SDS011;62856;51.446;8.360;2022-09-23T08:55:33;4.07;;;1.42;;
74421;SDS011;62856;51.446;8.360;2022-09-23T09:03:44;8.05;;;1.77;;
74421;SDS011;62856;51.446;8.360;2022-09-23T09:06:31;4.93;;;1.73;;
74421;SDS011;62856;51.446;8.360;2022-09-23T09:11:32;4.63;;;1.42;;
74421;SDS011;62856;51.446;8.360;2022-09-23T09:14:09;4.50;;;1.70;;
74421;SDS011;62856;51.446;8.360;2022-09-23T09:19:19;6.03;;;1.58;;
74421;SDS011;62856;51.446;8.360;2022-09-23T09:21:58;6.88;;;1.70;;
74421;SDS011;62856;51.446;8.360;2022-09-23T09:24:30;5.97;;;1.85;;
74421;SDS011;62856;51.446;8.360;2022-09-23T09:27:08;5.32;;;1.60;;
74421;SDS011;62856;51.446;8.360;2022-09-23T09:29:37;4.43;;;1.60;;
74421;SDS011;62856;51.446;8.360;2022-09-23T09:38:16;9.38;;;1.60;;
74421;SDS011;62856;51.446;8.360;2022-09-23T09:40:51;4.78;;;1.67;;
74421;SDS011;62856;51.446;8.360;2022-09-23T09:43:29;6.38;;;1.45;;
74421;SDS011;62856;51.446;8.360;2022-09-23T09:48:57;7.95;;;1.70;;
74421;SDS011;62856;51.446;8.360;2022-09-23T09:51:47;6.43;;;1.75;;
74421;SDS011;62856;51.446;8.360;2022-09-23T09:54:38;5.22;;;1.75;;
74421;SDS011;62856;51.446;8.360;2022-09-23T09:57:04;4.18;;;1.50;;
74421;SDS011;62856;51.446;8.360;2022-09-23T09:59:40;5.90;;;1.60;;
74421;SDS011;62856;51.446;8.360;2022-09-23T10:02:50;6.00;;;1.70;;
74421;SDS011;62856;51.446;8.360;2022-09-23T10:05:04;5.40;;;1.60;;
74421;SDS011;62856;51.446;8.360;2022-09-23T10:07:50;7.97;;;1.70;;
74421;SDS011;62856;51.446;8.360;2022-09-23T10:10:17;4.57;;;1.60;;
74421;SDS011;62856;51.446;8.360;2022-09-23T10:12:52;4.25;;;1.60;;
74421;SDS011;62856;51.446;8.360;2022-09-23T10:15:28;5.00;;;1.70;;
74421;SDS011;62856;51.446;8.360;2022-09-23T10:17:57;4.88;;;1.50;;
74421;SDS011;62856;51.446;8.360;2022-09-23T10:20:26;5.68;;;1.58;;
74421;SDS011;62856;51.446;8.360;2022-09-23T10:23:03;5.20;;;1.42;;
74421;SDS011;62856;51.446;8.360;2022-09-23T10:25:38;6.57;;;1.50;;
74421;SDS011;62856;51.446;8.360;2022-09-23T10:31:11;5.40;;;1.63;;
74421;SDS011;62856;51.446;8.360;2022-09-23T10:33:49;5.05;;;1.60;;
74421;SDS011;62856;51.446;8.360;2022-09-23T10:36:21;5.38;;;1.70;;
74421;SDS011;62856;51.446;8.360;2022-09-23T10:38:47;6.53;;;1.80;;
74421;SDS011;62856;51.446;8.360;2022-09-23T10:41:23;5.88;;;1.40;;
74421;SDS011;62856;51.446;8.360;2022-09-23T10:44:34;4.70;;;1.60;;
74421;SDS011;62856;51.446;8.360;2022-09-23T10:47:34;5.38;;;1.75;;
74421;SDS011;62856;51.446;8.360;2022-09-23T10:50:16;5.05;;;1.83;;
74421;SDS011;62856;51.446;8.360;2022-09-23T11:13:00;3.88;;;1.40;;
74421;SDS011;62856;51.446;8.360;2022-09-23T11:20:46;6.68;;;1.70;;
74421;SDS011;62856;51.446;8.360;2022-09-23T11:26:07;4.85;;;1.40;;
74421;SDS011;62856;51.446;8.360;2022-09-23T11:36:55;9.05;;;2.95;;
74421;SDS011;62856;51.446;8.360;2022-09-23T11:41:55;9.82;;;2.97;;
74421;SDS011;62856;51.446;8.360;2022-09-23T11:44:28;26.48;;;10.85;;
74421;SDS011;62856;51.446;8.360;2022-09-23T11:47:05;9.02;;;2.90;;
74421;SDS011;62856;51.446;8.360;2022-09-23T11:52:32;5.20;;;1.60;;
74421;SDS011;62856;51.446;8.360;2022-09-23T11:55:15;6.65;;;1.63;;
74421;SDS011;62856;51.446;8.360;2022-09-23T11:58:15;5.55;;;1.38;;
74421;SDS011;62856;51.446;8.360;2022-09-23T12:00:45;5.15;;;1.60;;
74421;SDS011;62856;51.446;8.360;2022-09-23T12:06:13;3.80;;;1.30;;
74421;SDS011;62856;51.446;8.360;2022-09-23T12:08:43;4.45;;;1.38;;
74421;SDS011;62856;51.446;8.360;2022-09-23T12:11:21;2.95;;;1.15;;
74421;SDS011;62856;51.446;8.360;2022-09-23T12:16:54;4.53;;;1.50;;
74421;SDS011;62856;51.446;8.360;2022-09-23T12:19:31;9.90;;;1.70;;
74421;SDS011;62856;51.446;8.360;2022-09-23T12:22:23;9.27;;;2.85;;
74421;SDS011;62856;51.446;8.360;2022-09-23T12:27:58;4.38;;;1.15;;
74421;SDS011;62856;51.446;8.360;2022-09-23T12:30:29;6.00;;;1.50;;
74421;SDS011;62856;51.446;8.360;2022-09-23T12:33:06;6.18;;;1.30;;
74421;SDS011;62856;51.446;8.360;2022-09-23T12:35:39;7.72;;;1.50;;
74421;SDS011;62856;51.446;8.360;2022-09-23T12:38:12;4.57;;;1.27;;
74421;SDS011;62856;51.446;8.360;2022-09-23T12:40:44;3.22;;;1.17;;
74421;SDS011;62856;51.446;8.360;2022-09-23T12:43:17;5.72;;;1.45;;
74421;SDS011;62856;51.446;8.360;2022-09-23T12:45:52;3.80;;;1.20;;
74421;SDS011;62856;51.446;8.360;2022-09-23T12:55:58;5.20;;;1.75;;
74421;SDS011;62856;51.446;8.360;2022-09-23T13:01:20;3.30;;;1.20;;
74421;SDS011;62856;51.446;8.360;2022-09-23T13:03:48;6.53;;;2.25;;
74421;SDS011;62856;51.446;8.360;2022-09-23T13:06:42;4.40;;;1.35;;
74421;SDS011;62856;51.446;8.360;2022-09-23T13:09:30;3.63;;;1.30;;
74421;SDS011;62856;51.446;8.360;2022-09-23T13:12:01;3.78;;;1.10;;
74421;SDS011;62856;51.446;8.360;2022-09-23T13:14:35;7.75;;;1.73;;
74421;SDS011;62856;51.446;8.360;2022-09-23T13:17:04;7.35;;;1.52;;
74421;SDS011;62856;51.446;8.360;2022-09-23T13:27:20;3.72;;;1.30;;
74421;SDS011;62856;51.446;8.360;2022-09-23T13:29:57;3.90;;;1.20;;
74421;SDS011;62856;51.446;8.360;2022-09-23T13:32:31;3.00;;;1.10;;
74421;SDS011;62856;51.446;8.360;2022-09-23T13:35:12;4.22;;;1.45;;
74421;SDS011;62856;51.446;8.360;2022-09-23T13:37:58;3.88;;;1.20;;
74421;SDS011;62856;51.446;8.360;2022-09-23T13:40:26;3.15;;;1.10;;
74421;SDS011;62856;51.446;8.360;2022-09-23T13:42:57;4.32;;;1.40;;
74421;SDS011;62856;51.446;8.360;2022-09-23T13:45:25;3.03;;;1.10;;
74421;SDS011;62856;51.446;8.360;2022-09-23T13:50:22;3.83;;;1.30;;
74421;SDS011;62856;51.446;8.360;2022-09-23T13:52:55;7.43;;;1.65;;
74421;SDS011;62856;51.446;8.360;2022-09-23T13:58:01;5.00;;;1.30;;
74421;SDS011;62856;51.446;8.360;2022-09-23T14:00:32;4.07;;;1.20;;
74421;SDS011;62856;51.446;8.360;2022-09-23T14:03:01;4.25;;;1.30;;
74421;SDS011;62856;51.446;8.360;2022-09-23T14:05:29;3.08;;;1.10;;
74421;SDS011;62856;51.446;8.360;2022-09-23T14:07:58;4.28;;;1.13;;
74421;SDS011;62856;51.446;8.360;2022-09-23T14:10:24;3.30;;;1.23;;
74421;SDS011;62856;51.446;8.360;2022-09-23T14:12:51;2.53;;;1.20;;
74421;SDS011;62856;51.446;8.360;2022-09-23T14:15:18;3.72;;;1.40;;
74421;SDS011;62856;51.446;8.360;2022-09-23T14:17:51;4.47;;;1.33;;
74421;SDS011;62856;51.446;8.360;2022-09-23T14:20:25;4.35;;;1.30;;
74421;SDS011;62856;51.446;8.360;2022-09-23T14:23:08;3.20;;;1.20;;
74421;SDS011;62856;51.446;8.360;2022-09-23T14:25:35;4.38;;;1.55;;
74421;SDS011;62856;51.446;8.360;2022-09-23T14:28:02;3.97;;;1.20;;
74421;SDS011;62856;51.446;8.360;2022-09-23T14:30:28;6.20;;;1.20;;
74421;SDS011;62856;51.446;8.360;2022-09-23T14:32:54;5.43;;;1.67;;
74421;SDS011;62856;51.446;8.360;2022-09-23T14:35:21;4.10;;;1.40;;
74421;SDS011;62856;51.446;8.360;2022-09-23T14:37:51;3.60;;;1.10;;
74421;SDS011;62856;51.446;8.360;2022-09-23T14:40:55;3.75;;;1.20;;
74421;SDS011;62856;51.446;8.360;2022-09-23T14:43:54;3.67;;;1.25;;
74421;SDS011;62856;51.446;8.360;2022-09-23T14:46:23;4.78;;;1.38;;
74421;SDS011;62856;51.446;8.360;2022-09-23T14:48:51;3.83;;;1.20;;
74421;SDS011;62856;51.446;8.360;2022-09-23T14:51:17;4.57;;;1.40;;
74421;SDS011;62856;51.446;8.360;2022-09-23T14:53:43;5.63;;;1.45;;
74421;SDS011;62856;51.446;8.360;2022-09-23T14:56:16;4.70;;;1.30;;
74421;SDS011;62856;51.446;8.360;2022-09-23T15:03:55;4.93;;;1.23;;
74421;SDS011;62856;51.446;8.360;2022-09-23T15:06:22;4.68;;;1.40;;
74421;SDS011;62856;51.446;8.360;2022-09-23T15:08:49;4.78;;;1.25;;
74421;SDS011;62856;51.446;8.360;2022-09-23T15:11:16;3.58;;;1.20;;
74421;SDS011;62856;51.446;8.360;2022-09-23T15:13:42;4.90;;;1.45;;
74421;SDS011;62856;51.446;8.360;2022-09-23T15:16:12;4.20;;;1.40;;
74421;SDS011;62856;51.446;8.360;2022-09-23T15:18:39;5.30;;;1.48;;
74421;SDS011;62856;51.446;8.360;2022-09-23T15:21:09;4.05;;;1.50;;
74421;SDS011;62856;51.446;8.360;2022-09-23T15:26:09;6.57;;;1.60;;
74421;SDS011;62856;51.446;8.360;2022-09-23T15:28:37;6.30;;;1.67;;
74421;SDS011;62856;51.446;8.360;2022-09-23T15:31:03;4.65;;;1.38;;
74421;SDS011;62856;51.446;8.360;2022-09-23T15:33:29;4.65;;;1.30;;
74421;SDS011;62856;51.446;8.360;2022-09-23T15:35:55;5.20;;;1.38;;
74421;SDS011;62856;51.446;8.360;2022-09-23T15:38:20;5.75;;;1.90;;
74421;SDS011;62856;51.446;8.360;2022-09-23T15:40:46;6.10;;;1.80;;
74421;SDS011;62856;51.446;8.360;2022-09-23T15:45:49;6.65;;;2.22;;
74421;SDS011;62856;51.446;8.360;2022-09-23T15:48:24;6.95;;;1.98;;
74421;SDS011;62856;51.446;8.360;2022-09-23T15:50:52;6.45;;;1.80;;
74421;SDS011;62856;51.446;8.360;2022-09-23T15:53:22;9.43;;;2.65;;
74421;SDS011;62856;51.446;8.360;2022-09-23T15:55:50;8.50;;;2.30;;
74421;SDS011;62856;51.446;8.360;2022-09-23T15:58:16;7.15;;;2.10;;
74421;SDS011;62856;51.446;8.360;2022-09-23T16:00:46;8.32;;;2.10;;
74421;SDS011;62856;51.446;8.360;2022-09-23T16:03:15;6.22;;;1.58;;
74421;SDS011;62856;51.446;8.360;2022-09-23T16:05:41;5.90;;;1.70;;
74421;SDS011;62856;51.446;8.360;2022-09-23T16:08:13;5.95;;;1.92;;
74421;SDS011;62856;51.446;8.360;2022-09-23T16:10:39;7.03;;;2.63;;
74421;SDS011;62856;51.446;8.360;2022-09-23T16:13:05;8.02;;;2.22;;
74421;SDS011;62856;51.446;8.360;2022-09-23T16:15:34;7.22;;;2.55;;
74421;SDS011;62856;51.446;8.360;2022-09-23T16:17:59;6.32;;;1.80;;
74421;SDS011;62856;51.446;8.360;2022-09-23T16:20:25;7.43;;;2.20;;
74421;SDS011;62856;51.446;8.360;2022-09-23T16:22:57;5.68;;;1.42;;
74421;SDS011;62856;51.446;8.360;2022-09-23T16:25:26;6.10;;;1.85;;
74421;SDS011;62856;51.446;8.360;2022-09-23T16:27:54;5.43;;;1.92;;
74421;SDS011;62856;51.446;8.360;2022-09-23T16:30:26;7.15;;;2.03;;
74421;SDS011;62856;51.446;8.360;2022-09-23T16:32:52;8.38;;;1.98;;
74421;SDS011;62856;51.446;8.360;2022-09-23T16:35:22;6.80;;;1.83;;
74421;SDS011;62856;51.446;8.360;2022-09-23T16:37:49;6.72;;;2.30;;
74421;SDS011;62856;51.446;8.360;2022-09-23T16:40:19;16.63;;;7.03;;
74421;SDS011;62856;51.446;8.360;2022-09-23T16:42:46;23.48;;;12.68;;
74421;SDS011;62856;51.446;8.360;2022-09-23T16:45:12;14.93;;;6.13;;
74421;SDS011;62856;51.446;8.360;2022-09-23T16:47:41;9.65;;;4.03;;
74421;SDS011;62856;51.446;8.360;2022-09-23T16:50:11;5.75;;;1.92;;
74421;SDS011;62856;51.446;8.360;2022-09-23T16:52:37;6.10;;;1.67;;
74421;SDS011;62856;51.446;8.360;2022-09-23T16:55:03;5.70;;;1.90;;
74421;SDS011;62856;51.446;8.360;2022-09-23T16:57:29;6.57;;;2.05;;
74421;SDS011;62856;51.446;8.360;2022-09-23T16:59:54;6.47;;;1.83;;
74421;SDS011;62856;51.446;8.360;2022-09-23T17:02:39;7.03;;;2.60;;
74421;SDS011;62856;51.446;8.360;2022-09-23T17:05:23;9.35;;;3.33;;
74421;SDS011;62856;51.446;8.360;2022-09-23T17:07:48;9.07;;;4.28;;
74421;SDS011;62856;51.446;8.360;2022-09-23T17:10:14;10.43;;;4.13;;
74421;SDS011;62856;51.446;8.360;2022-09-23T17:12:42;10.20;;;4.80;;
74421;SDS011;62856;51.446;8.360;2022-09-23T17:15:08;12.50;;;5.80;;
74421;SDS011;62856;51.446;8.360;2022-09-23T17:17:34;11.60;;;6.10;;
74421;SDS011;62856;51.446;8.360;2022-09-23T17:20:03;7.95;;;3.83;;
74421;SDS011;62856;51.446;8.360;2022-09-23T17:24:59;9.07;;;3.53;;
74421;SDS011;62856;51.446;8.360;2022-09-23T17:27:26;8.88;;;2.60;;
74421;SDS011;62856;51.446;8.360;2022-09-23T17:29:51;9.32;;;3.55;;
74421;SDS011;62856;51.446;8.360;2022-09-23T17:32:17;9.45;;;3.28;;
74421;SDS011;62856;51.446;8.360;2022-09-23T17:34:42;8.50;;;2.80;;
74421;SDS011;62856;51.446;8.360;2022-09-23T17:37:08;9.88;;;4.57;;
74421;SDS011;62856;51.446;8.360;2022-09-23T17:39:34;11.90;;;4.93;;
74421;SDS011;62856;51.446;8.360;2022-09-23T17:42:00;8.43;;;3.55;;
74421;SDS011;62856;51.446;8.360;2022-09-23T17:44:27;6.68;;;3.00;;
74421;SDS011;62856;51.446;8.360;2022-09-23T17:46:52;5.72;;;2.30;;
74421;SDS011;62856;51.446;8.360;2022-09-23T17:49:18;5.88;;;2.30;;
74421;SDS011;62856;51.446;8.360;2022-09-23T17:51:44;7.00;;;2.03;;
74421;SDS011;62856;51.446;8.360;2022-09-23T17:54:09;8.75;;;2.80;;
74421;SDS011;62856;51.446;8.360;2022-09-23T17:56:36;9.32;;;2.55;;
74421;SDS011;62856;51.446;8.360;2022-09-23T17:59:01;7.72;;;2.70;;